sensor_id;sensor_type;location;lat;lon;timestamp;pressure;altitude;pressure_sealevel;temperature;humidity
79400;BME280;68856;45.586;10.264;2023-04-15T00:00:41;98206.44;;;12.34;nan
79400;BME280;68856;45.586;10.264;2023-04-15T00:03:08;98204.53;;;12.35;nan
79400;BME280;68856;45.586;10.264;2023-04-15T00:05:34;98199.91;;;12.35;nan
79400;BME280;68856;45.586;10.264;2023-04-15T00:08:00;98193.81;;;12.43;nan
79400;BME280;68856;45.586;10.264;2023-04-15T00:10:27;98193.59;;;12.40;nan
79400;BME280;68856;45.586;10.264;2023-04-15T00:12:53;98197.56;;;12.66;nan
79400;BME280;68856;45.586;10.264;2023-04-15T00:15:20;98194.09;;;12.42;nan
79400;BME280;68856;45.586;10.264;2023-04-15T00:17:48;98201.59;;;12.31;nan
79400;BME280;68856;45.586;10.264;2023-04-15T00:20:15;98204.09;;;12.28;nan
79400;BME280;68856;45.586;10.264;2023-04-15T00:22:41;98204.91;;;12.28;nan
79400;BME280;68856;45.586;10.264;2023-04-15T00:25:07;98192.75;;;12.21;nan
79400;BME280;68856;45.586;10.264;2023-04-15T00:27:34;98200.06;;;12.25;nan
79400;BME280;68856;45.586;10.264;2023-04-15T00:30:00;98190.38;;;12.14;nan
79400;BME280;68856;45.586;10.264;2023-04-15T00:32:27;98186.03;;;12.13;nan
79400;BME280;68856;45.586;10.264;2023-04-15T00:34:53;98190.84;;;12.21;nan
79400;BME280;68856;45.586;10.264;2023-04-15T00:37:19;98185.44;;;12.16;nan
79400;BME280;68856;45.586;10.264;2023-04-15T00:39:45;98180.47;;;12.42;nan
79400;BME280;68856;45.586;10.264;2023-04-15T00:42:12;98181.97;;;12.11;nan
79400;BME280;68856;45.586;10.264;2023-04-15T00:44:39;98181.59;;;11.99;nan
79400;BME280;68856;45.586;10.264;2023-04-15T00:47:06;98184.31;;;11.75;nan
79400;BME280;68856;45.586;10.264;2023-04-15T00:49:33;98182.97;;;11.72;nan
79400;BME280;68856;45.586;10.264;2023-04-15T00:51:59;98179.69;;;11.75;nan
79400;BME280;68856;45.586;10.264;2023-04-15T00:54:25;98173.38;;;11.80;nan
79400;BME280;68856;45.586;10.264;2023-04-15T00:56:52;98172.03;;;12.01;nan
79400;BME280;68856;45.586;10.264;2023-04-15T00:59:18;98172.34;;;12.18;nan
79400;BME280;68856;45.586;10.264;2023-04-15T01:01:45;98171.41;;;11.85;nan
79400;BME280;68856;45.586;10.264;2023-04-15T01:04:12;98176.44;;;11.97;nan
79400;BME280;68856;45.586;10.264;2023-04-15T01:06:38;98178.25;;;11.83;nan
79400;BME280;68856;45.586;10.264;2023-04-15T01:09:04;98185.72;;;11.67;nan
79400;BME280;68856;45.586;10.264;2023-04-15T01:11:32;98181.38;;;11.71;nan
79400;BME280;68856;45.586;10.264;2023-04-15T01:14:01;98182.31;;;11.57;nan
79400;BME280;68856;45.586;10.264;2023-04-15T01:16:27;98184.25;;;11.51;nan
79400;BME280;68856;45.586;10.264;2023-04-15T01:18:54;98178.72;;;11.38;nan
79400;BME280;68856;45.586;10.264;2023-04-15T01:21:20;98182.19;;;11.43;nan
79400;BME280;68856;45.586;10.264;2023-04-15T01:23:47;98172.50;;;11.32;nan
79400;BME280;68856;45.586;10.264;2023-04-15T01:26:14;98183.38;;;11.61;nan
79400;BME280;68856;45.586;10.264;2023-04-15T01:28:41;98176.91;;;11.52;nan
79400;BME280;68856;45.586;10.264;2023-04-15T01:31:08;98177.53;;;11.72;nan
79400;BME280;68856;45.586;10.264;2023-04-15T01:33:35;98180.81;;;11.46;nan
79400;BME280;68856;45.586;10.264;2023-04-15T01:36:02;98180.59;;;11.37;nan
79400;BME280;68856;45.586;10.264;2023-04-15T01:38:29;98175.16;;;11.37;nan
79400;BME280;68856;45.586;10.264;2023-04-15T01:40:56;98170.06;;;11.31;nan
79400;BME280;68856;45.586;10.264;2023-04-15T01:43:24;98174.09;;;11.33;nan
79400;BME280;68856;45.586;10.264;2023-04-15T01:45:50;98177.22;;;11.21;nan
79400;BME280;68856;45.586;10.264;2023-04-15T01:48:16;98176.09;;;11.27;nan
79400;BME280;68856;45.586;10.264;2023-04-15T01:50:43;98172.50;;;11.32;nan
79400;BME280;68856;45.586;10.264;2023-04-15T01:53:09;98181.06;;;11.15;nan
79400;BME280;68856;45.586;10.264;2023-04-15T01:55:36;98173.75;;;11.45;nan
79400;BME280;68856;45.586;10.264;2023-04-15T01:58:02;98174.91;;;11.34;nan
79400;BME280;68856;45.586;10.264;2023-04-15T02:00:29;98183.22;;;11.18;nan
79400;BME280;68856;45.586;10.264;2023-04-15T02:02:55;98185.72;;;11.10;nan
79400;BME280;68856;45.586;10.264;2023-04-15T02:05:21;98179.66;;;11.23;nan
79400;BME280;68856;45.586;10.264;2023-04-15T02:07:48;98185.50;;;11.06;nan
79400;BME280;68856;45.586;10.264;2023-04-15T02:10:15;98189.84;;;11.07;nan
79400;BME280;68856;45.586;10.264;2023-04-15T02:12:42;98186.84;;;11.09;nan
79400;BME280;68856;45.586;10.264;2023-04-15T02:15:08;98189.06;;;11.07;nan
79400;BME280;68856;45.586;10.264;2023-04-15T02:17:36;98199.16;;;11.01;nan
79400;BME280;68856;45.586;10.264;2023-04-15T02:20:03;98201.81;;;11.06;nan
79400;BME280;68856;45.586;10.264;2023-04-15T02:22:33;98196.44;;;11.01;nan
79400;BME280;68856;45.586;10.264;2023-04-15T02:25:00;98199.41;;;11.00;nan
79400;BME280;68856;45.586;10.264;2023-04-15T02:27:26;98195.31;;;11.02;nan
79400;BME280;68856;45.586;10.264;2023-04-15T02:29:54;98191.00;;;11.01;nan
79400;BME280;68856;45.586;10.264;2023-04-15T02:32:20;98185.78;;;11.05;nan
79400;BME280;68856;45.586;10.264;2023-04-15T02:34:48;98195.72;;;11.19;nan
79400;BME280;68856;45.586;10.264;2023-04-15T02:37:14;98184.25;;;11.27;nan
79400;BME280;68856;45.586;10.264;2023-04-15T02:39:41;98183.88;;;11.05;nan
79400;BME280;68856;45.586;10.264;2023-04-15T02:42:07;98187.16;;;11.02;nan
79400;BME280;68856;45.586;10.264;2023-04-15T02:44:33;98191.50;;;11.03;nan
79400;BME280;68856;45.586;10.264;2023-04-15T02:47:01;98191.16;;;11.10;nan
79400;BME280;68856;45.586;10.264;2023-04-15T02:49:28;98194.25;;;11.32;nan
79400;BME280;68856;45.586;10.264;2023-04-15T02:51:57;98191.59;;;11.27;nan
79400;BME280;68856;45.586;10.264;2023-04-15T02:54:25;98196.16;;;11.32;nan
79400;BME280;68856;45.586;10.264;2023-04-15T02:56:54;98187.56;;;11.19;nan
79400;BME280;68856;45.586;10.264;2023-04-15T02:59:21;98196.03;;;11.13;nan
79400;BME280;68856;45.586;10.264;2023-04-15T03:01:48;98196.59;;;11.10;nan
79400;BME280;68856;45.586;10.264;2023-04-15T03:04:14;98199.28;;;11.15;nan
79400;BME280;68856;45.586;10.264;2023-04-15T03:06:40;98194.53;;;11.02;nan
79400;BME280;68856;45.586;10.264;2023-04-15T03:09:07;98196.16;;;10.98;nan
79400;BME280;68856;45.586;10.264;2023-04-15T03:11:34;98198.63;;;10.99;nan
79400;BME280;68856;45.586;10.264;2023-04-15T03:14:01;98200.78;;;10.97;nan
79400;BME280;68856;45.586;10.264;2023-04-15T03:16:28;98208.13;;;11.02;nan
79400;BME280;68856;45.586;10.264;2023-04-15T03:18:54;98199.69;;;10.98;nan
79400;BME280;68856;45.586;10.264;2023-04-15T03:21:20;98200.56;;;10.94;nan
79400;BME280;68856;45.586;10.264;2023-04-15T03:23:48;98204.38;;;10.93;nan
79400;BME280;68856;45.586;10.264;2023-04-15T03:26:28;98212.22;;;10.99;nan
79400;BME280;68856;45.586;10.264;2023-04-15T03:28:55;98222.56;;;10.92;nan
79400;BME280;68856;45.586;10.264;2023-04-15T03:31:21;98213.47;;;10.73;nan
79400;BME280;68856;45.586;10.264;2023-04-15T03:33:48;98219.38;;;10.85;nan
79400;BME280;68856;45.586;10.264;2023-04-15T03:36:14;98225.13;;;10.74;nan
79400;BME280;68856;45.586;10.264;2023-04-15T03:38:41;98225.66;;;10.81;nan
79400;BME280;68856;45.586;10.264;2023-04-15T03:41:08;98223.78;;;10.71;nan
79400;BME280;68856;45.586;10.264;2023-04-15T03:43:34;98225.28;;;10.92;nan
79400;BME280;68856;45.586;10.264;2023-04-15T03:46:01;98222.78;;;11.01;nan
79400;BME280;68856;45.586;10.264;2023-04-15T03:48:27;98219.81;;;10.97;nan
79400;BME280;68856;45.586;10.264;2023-04-15T03:50:54;98230.81;;;10.77;nan
79400;BME280;68856;45.586;10.264;2023-04-15T03:53:21;98231.91;;;10.81;nan
79400;BME280;68856;45.586;10.264;2023-04-15T03:55:48;98231.41;;;10.69;nan
79400;BME280;68856;45.586;10.264;2023-04-15T03:58:14;98232.22;;;10.70;nan
79400;BME280;68856;45.586;10.264;2023-04-15T04:00:40;98230.09;;;10.61;nan
79400;BME280;68856;45.586;10.264;2023-04-15T04:03:07;98242.06;;;10.60;nan
79400;BME280;68856;45.586;10.264;2023-04-15T04:05:34;98237.41;;;10.66;nan
79400;BME280;68856;45.586;10.264;2023-04-15T04:08:04;98242.63;;;10.57;nan
79400;BME280;68856;45.586;10.264;2023-04-15T04:10:30;98244.03;;;10.50;nan
79400;BME280;68856;45.586;10.264;2023-04-15T04:12:56;98252.97;;;10.50;nan
79400;BME280;68856;45.586;10.264;2023-04-15T04:15:23;98257.63;;;10.45;nan
79400;BME280;68856;45.586;10.264;2023-04-15T04:17:50;98254.69;;;10.36;nan
79400;BME280;68856;45.586;10.264;2023-04-15T04:20:16;98265.59;;;10.26;nan
79400;BME280;68856;45.586;10.264;2023-04-15T04:22:42;98266.09;;;10.33;nan
79400;BME280;68856;45.586;10.264;2023-04-15T04:25:09;98263.66;;;10.32;nan
79400;BME280;68856;45.586;10.264;2023-04-15T04:27:36;98271.72;;;10.47;nan
79400;BME280;68856;45.586;10.264;2023-04-15T04:30:02;98282.63;;;10.37;nan
79400;BME280;68856;45.586;10.264;2023-04-15T04:32:29;98269.91;;;10.27;nan
79400;BME280;68856;45.586;10.264;2023-04-15T04:34:55;98279.72;;;10.18;nan
79400;BME280;68856;45.586;10.264;2023-04-15T04:37:21;98280.25;;;10.15;nan
79400;BME280;68856;45.586;10.264;2023-04-15T04:39:48;98283.44;;;10.42;nan
79400;BME280;68856;45.586;10.264;2023-04-15T04:42:15;98289.13;;;10.41;nan
79400;BME280;68856;45.586;10.264;2023-04-15T04:44:41;98282.31;;;10.43;nan
79400;BME280;68856;45.586;10.264;2023-04-15T04:47:07;98288.06;;;10.37;nan
79400;BME280;68856;45.586;10.264;2023-04-15T04:49:34;98281.72;;;10.56;nan
79400;BME280;68856;45.586;10.264;2023-04-15T04:52:00;98291.16;;;10.69;nan
79400;BME280;68856;45.586;10.264;2023-04-15T04:54:27;98283.31;;;10.68;nan
79400;BME280;68856;45.586;10.264;2023-04-15T04:56:53;98291.38;;;10.19;nan
79400;BME280;68856;45.586;10.264;2023-04-15T04:59:20;98291.38;;;10.19;nan
79400;BME280;68856;45.586;10.264;2023-04-15T05:01:46;98293.84;;;10.15;nan
79400;BME280;68856;45.586;10.264;2023-04-15T05:04:12;98293.00;;;10.04;nan
79400;BME280;68856;45.586;10.264;2023-04-15T05:06:39;98298.16;;;10.11;nan
79400;BME280;68856;45.586;10.264;2023-04-15T05:09:05;98303.31;;;10.23;nan
79400;BME280;68856;45.586;10.264;2023-04-15T05:11:32;98300.81;;;10.36;nan
79400;BME280;68856;45.586;10.264;2023-04-15T05:13:58;98304.41;;;10.27;nan
79400;BME280;68856;45.586;10.264;2023-04-15T05:16:26;98301.97;;;10.15;nan
79400;BME280;68856;45.586;10.264;2023-04-15T05:18:53;98312.53;;;10.27;nan
79400;BME280;68856;45.586;10.264;2023-04-15T05:21:19;98316.88;;;10.23;nan
79400;BME280;68856;45.586;10.264;2023-04-15T05:23:46;98312.00;;;10.20;nan
79400;BME280;68856;45.586;10.264;2023-04-15T05:26:12;98315.00;;;10.18;nan
79400;BME280;68856;45.586;10.264;2023-04-15T05:28:39;98319.88;;;10.06;nan
79400;BME280;68856;45.586;10.264;2023-04-15T05:31:05;98310.66;;;10.17;nan
79400;BME280;68856;45.586;10.264;2023-04-15T05:33:32;98310.91;;;10.11;nan
79400;BME280;68856;45.586;10.264;2023-04-15T05:35:58;98315.81;;;10.09;nan
79400;BME280;68856;45.586;10.264;2023-04-15T05:38:25;98317.19;;;10.16;nan
79400;BME280;68856;45.586;10.264;2023-04-15T05:40:52;98316.88;;;10.18;nan
79400;BME280;68856;45.586;10.264;2023-04-15T05:43:18;98317.72;;;10.18;nan
79400;BME280;68856;45.586;10.264;2023-04-15T05:45:44;98326.94;;;10.17;nan
79400;BME280;68856;45.586;10.264;2023-04-15T05:48:10;98325.00;;;10.28;nan
79400;BME280;68856;45.586;10.264;2023-04-15T05:50:39;98324.19;;;10.27;nan
79400;BME280;68856;45.586;10.264;2023-04-15T05:53:05;98319.56;;;10.28;nan
79400;BME280;68856;45.586;10.264;2023-04-15T05:55:32;98323.34;;;10.42;nan
79400;BME280;68856;45.586;10.264;2023-04-15T05:57:58;98328.16;;;10.60;nan
79400;BME280;68856;45.586;10.264;2023-04-15T06:00:24;98325.69;;;10.58;nan
79400;BME280;68856;45.586;10.264;2023-04-15T06:02:51;98328.19;;;10.55;nan
79400;BME280;68856;45.586;10.264;2023-04-15T06:05:18;98324.88;;;10.63;nan
79400;BME280;68856;45.586;10.264;2023-04-15T06:07:44;98326.28;;;10.55;nan
79400;BME280;68856;45.586;10.264;2023-04-15T06:10:10;98324.59;;;10.64;nan
79400;BME280;68856;45.586;10.264;2023-04-15T06:12:36;98324.88;;;10.63;nan
79400;BME280;68856;45.586;10.264;2023-04-15T06:15:03;98324.03;;;10.73;nan
79400;BME280;68856;45.586;10.264;2023-04-15T06:17:31;98335.41;;;10.75;nan
79400;BME280;68856;45.586;10.264;2023-04-15T06:19:57;98329.41;;;10.83;nan
79400;BME280;68856;45.586;10.264;2023-04-15T06:22:24;98335.59;;;10.93;nan
79400;BME280;68856;45.586;10.264;2023-04-15T06:24:50;98342.84;;;11.08;nan
79400;BME280;68856;45.586;10.264;2023-04-15T06:27:17;98335.69;;;11.22;nan
79400;BME280;68856;45.586;10.264;2023-04-15T06:29:43;98332.56;;;11.39;nan
79400;BME280;68856;45.586;10.264;2023-04-15T06:32:10;98335.06;;;11.35;nan
79400;BME280;68856;45.586;10.264;2023-04-15T06:34:36;98338.56;;;11.41;nan
79400;BME280;68856;45.586;10.264;2023-04-15T06:37:03;98337.16;;;11.48;nan
79400;BME280;68856;45.586;10.264;2023-04-15T06:39:29;98335.25;;;11.44;nan
79400;BME280;68856;45.586;10.264;2023-04-15T06:41:55;98333.59;;;11.48;nan
79400;BME280;68856;45.586;10.264;2023-04-15T06:44:21;98322.22;;;11.46;nan
79400;BME280;68856;45.586;10.264;2023-04-15T06:46:48;98316.84;;;11.69;nan
79400;BME280;68856;45.586;10.264;2023-04-15T06:49:14;98319.25;;;11.76;nan
79400;BME280;68856;45.586;10.264;2023-04-15T06:51:42;98326.06;;;11.73;nan
79400;BME280;68856;45.586;10.264;2023-04-15T06:54:08;98329.88;;;11.72;nan
79400;BME280;68856;45.586;10.264;2023-04-15T06:56:34;98326.59;;;11.75;nan
79400;BME280;68856;45.586;10.264;2023-04-15T06:59:01;98330.97;;;11.76;nan
79400;BME280;68856;45.586;10.264;2023-04-15T07:01:27;98328.34;;;11.90;nan
79400;BME280;68856;45.586;10.264;2023-04-15T07:03:54;98331.28;;;11.99;nan
79400;BME280;68856;45.586;10.264;2023-04-15T07:06:20;98324.81;;;11.95;nan
79400;BME280;68856;45.586;10.264;2023-04-15T07:08:47;98326.34;;;12.01;nan
79400;BME280;68856;45.586;10.264;2023-04-15T07:11:13;98329.06;;;12.01;nan
79400;BME280;68856;45.586;10.264;2023-04-15T07:13:40;98330.56;;;12.17;nan
79400;BME280;68856;45.586;10.264;2023-04-15T07:16:06;98320.44;;;12.22;nan
79400;BME280;68856;45.586;10.264;2023-04-15T07:18:32;98319.56;;;12.27;nan
79400;BME280;68856;45.586;10.264;2023-04-15T07:20:58;98321.66;;;12.35;nan
79400;BME280;68856;45.586;10.264;2023-04-15T07:23:25;98321.28;;;12.41;nan
79400;BME280;68856;45.586;10.264;2023-04-15T07:25:51;98323.66;;;12.48;nan
79400;BME280;68856;45.586;10.264;2023-04-15T07:28:18;98320.88;;;12.53;nan
79400;BME280;68856;45.586;10.264;2023-04-15T07:30:44;98320.31;;;12.56;nan
79400;BME280;68856;45.586;10.264;2023-04-15T07:33:10;98320.75;;;12.63;nan
79400;BME280;68856;45.586;10.264;2023-04-15T07:35:37;98310.31;;;12.70;nan
79400;BME280;68856;45.586;10.264;2023-04-15T07:38:03;98314.91;;;12.75;nan
79400;BME280;68856;45.586;10.264;2023-04-15T07:40:29;98316.22;;;12.77;nan
79400;BME280;68856;45.586;10.264;2023-04-15T07:42:56;98307.09;;;12.87;nan
79400;BME280;68856;45.586;10.264;2023-04-15T07:45:23;98309.00;;;12.86;nan
79400;BME280;68856;45.586;10.264;2023-04-15T07:47:49;98310.06;;;12.90;nan
79400;BME280;68856;45.586;10.264;2023-04-15T07:50:16;98312.09;;;12.98;nan
79400;BME280;68856;45.586;10.264;2023-04-15T07:52:44;98307.66;;;13.07;nan
79400;BME280;68856;45.586;10.264;2023-04-15T07:55:11;98308.16;;;13.09;nan
79400;BME280;68856;45.586;10.264;2023-04-15T07:57:37;98314.38;;;13.15;nan
79400;BME280;68856;45.586;10.264;2023-04-15T08:00:04;98310.47;;;13.21;nan
79400;BME280;68856;45.586;10.264;2023-04-15T08:02:32;98318.34;;;13.23;nan
79400;BME280;68856;45.586;10.264;2023-04-15T08:04:59;98322.41;;;13.25;nan
79400;BME280;68856;45.586;10.264;2023-04-15T08:07:28;98319.00;;;13.33;nan
79400;BME280;68856;45.586;10.264;2023-04-15T08:09:54;98314.56;;;13.37;nan
79400;BME280;68856;45.586;10.264;2023-04-15T08:12:21;98316.69;;;13.40;nan
79400;BME280;68856;45.586;10.264;2023-04-15T08:14:47;98321.50;;;13.48;nan
79400;BME280;68856;45.586;10.264;2023-04-15T08:17:13;98322.22;;;13.54;nan
79400;BME280;68856;45.586;10.264;2023-04-15T08:19:39;98318.91;;;13.57;nan
79400;BME280;68856;45.586;10.264;2023-04-15T08:22:07;98313.06;;;13.63;nan
79400;BME280;68856;45.586;10.264;2023-04-15T08:24:33;98311.38;;;13.67;nan
79400;BME280;68856;45.586;10.264;2023-04-15T08:27:00;98311.13;;;13.64;nan
79400;BME280;68856;45.586;10.264;2023-04-15T08:29:29;98314.28;;;13.71;nan
79400;BME280;68856;45.586;10.264;2023-04-15T08:31:55;98307.50;;;13.68;nan
79400;BME280;68856;45.586;10.264;2023-04-15T08:34:22;98310.97;;;13.74;nan
79400;BME280;68856;45.586;10.264;2023-04-15T08:36:48;98303.00;;;13.78;nan
79400;BME280;68856;45.586;10.264;2023-04-15T08:39:15;98308.56;;;13.86;nan
79400;BME280;68856;45.586;10.264;2023-04-15T08:41:57;98310.69;;;13.89;nan
79400;BME280;68856;45.586;10.264;2023-04-15T08:44:26;98311.19;;;13.91;nan
79400;BME280;68856;45.586;10.264;2023-04-15T08:46:55;98311.75;;;13.93;nan
79400;BME280;68856;45.586;10.264;2023-04-15T08:49:25;98309.19;;;13.97;nan
79400;BME280;68856;45.586;10.264;2023-04-15T08:51:52;98308.09;;;13.98;nan
79400;BME280;68856;45.586;10.264;2023-04-15T08:54:19;98304.69;;;14.06;nan
79400;BME280;68856;45.586;10.264;2023-04-15T08:56:46;98306.00;;;14.08;nan
79400;BME280;68856;45.586;10.264;2023-04-15T08:59:14;98302.56;;;14.16;nan
79400;BME280;68856;45.586;10.264;2023-04-15T09:01:42;98300.63;;;14.17;nan
79400;BME280;68856;45.586;10.264;2023-04-15T09:04:08;98300.13;;;14.15;nan
79400;BME280;68856;45.586;10.264;2023-04-15T09:06:35;98300.75;;;14.25;nan
79400;BME280;68856;45.586;10.264;2023-04-15T09:09:01;98299.03;;;14.29;nan
79400;BME280;68856;45.586;10.264;2023-04-15T09:11:29;98291.38;;;14.31;nan
79400;BME280;68856;45.586;10.264;2023-04-15T09:13:56;98285.50;;;14.38;nan
79400;BME280;68856;45.586;10.264;2023-04-15T09:16:22;98293.59;;;14.43;nan
79400;BME280;68856;45.586;10.264;2023-04-15T09:18:49;98289.66;;;14.49;nan
79400;BME280;68856;45.586;10.264;2023-04-15T09:21:16;98291.19;;;14.55;nan
79400;BME280;68856;45.586;10.264;2023-04-15T09:23:59;98292.06;;;14.64;nan
79400;BME280;68856;45.586;10.264;2023-04-15T09:26:44;98287.81;;;14.72;nan
79400;BME280;68856;45.586;10.264;2023-04-15T09:29:11;98288.59;;;14.86;nan
79400;BME280;68856;45.586;10.264;2023-04-15T09:31:41;98282.72;;;14.92;nan
79400;BME280;68856;45.586;10.264;2023-04-15T09:34:07;98284.94;;;15.04;nan
79400;BME280;68856;45.586;10.264;2023-04-15T09:36:55;98282.56;;;15.11;nan
79400;BME280;68856;45.586;10.264;2023-04-15T09:39:22;98285.50;;;15.15;nan
79400;BME280;68856;45.586;10.264;2023-04-15T09:42:08;98289.31;;;15.27;nan
79400;BME280;68856;45.586;10.264;2023-04-15T09:44:35;98280.56;;;15.25;nan
79400;BME280;68856;45.586;10.264;2023-04-15T09:47:01;98281.66;;;15.38;nan
79400;BME280;68856;45.586;10.264;2023-04-15T09:49:28;98285.19;;;15.38;nan
79400;BME280;68856;45.586;10.264;2023-04-15T09:52:00;98285.03;;;15.35;nan
79400;BME280;68856;45.586;10.264;2023-04-15T09:54:37;98280.16;;;15.45;nan
79400;BME280;68856;45.586;10.264;2023-04-15T09:57:07;98279.22;;;15.50;nan
79400;BME280;68856;45.586;10.264;2023-04-15T09:59:34;98279.78;;;15.61;nan
79400;BME280;68856;45.586;10.264;2023-04-15T10:02:04;98268.59;;;15.48;nan
79400;BME280;68856;45.586;10.264;2023-04-15T10:04:35;98258.84;;;15.65;nan
79400;BME280;68856;45.586;10.264;2023-04-15T10:07:06;98260.41;;;15.79;nan
79400;BME280;68856;45.586;10.264;2023-04-15T10:09:35;98255.16;;;15.91;nan
79400;BME280;68856;45.586;10.264;2023-04-15T10:12:04;98257.88;;;15.91;nan
79400;BME280;68856;45.586;10.264;2023-04-15T10:14:35;98261.78;;;15.99;nan
79400;BME280;68856;45.586;10.264;2023-04-15T10:17:04;98269.38;;;16.02;nan
79400;BME280;68856;45.586;10.264;2023-04-15T10:19:35;98264.25;;;16.09;nan
79400;BME280;68856;45.586;10.264;2023-04-15T10:22:03;98262.94;;;16.06;nan
79400;BME280;68856;45.586;10.264;2023-04-15T10:24:33;98254.06;;;16.01;nan
79400;BME280;68856;45.586;10.264;2023-04-15T10:27:00;98256.16;;;16.04;nan
79400;BME280;68856;45.586;10.264;2023-04-15T10:29:29;98244.44;;;16.12;nan
79400;BME280;68856;45.586;10.264;2023-04-15T10:31:55;98254.91;;;16.10;nan
79400;BME280;68856;45.586;10.264;2023-04-15T10:34:23;98242.88;;;16.19;nan
79400;BME280;68856;45.586;10.264;2023-04-15T10:36:50;98254.44;;;16.16;nan
79400;BME280;68856;45.586;10.264;2023-04-15T10:39:46;98248.38;;;16.28;nan
79400;BME280;68856;45.586;10.264;2023-04-15T10:42:17;98247.09;;;16.34;nan
79400;BME280;68856;45.586;10.264;2023-04-15T10:44:56;98248.91;;;16.39;nan
79400;BME280;68856;45.586;10.264;2023-04-15T10:47:22;98245.38;;;16.47;nan
79400;BME280;68856;45.586;10.264;2023-04-15T10:49:55;98244.63;;;16.55;nan
79400;BME280;68856;45.586;10.264;2023-04-15T10:52:24;98241.09;;;16.63;nan
79400;BME280;68856;45.586;10.264;2023-04-15T10:57:39;98243.72;;;16.94;nan
79400;BME280;68856;45.586;10.264;2023-04-15T11:05:06;98230.34;;;17.18;nan
79400;BME280;68856;45.586;10.264;2023-04-15T11:12:46;98222.06;;;17.52;nan
79400;BME280;68856;45.586;10.264;2023-04-15T11:18:23;98211.28;;;18.02;nan
79400;BME280;68856;45.586;10.264;2023-04-15T11:20:58;98213.78;;;18.24;nan
79400;BME280;68856;45.586;10.264;2023-04-15T11:25:59;98215.28;;;19.01;nan
79400;BME280;68856;45.586;10.264;2023-04-15T11:28:28;98207.16;;;19.46;nan
79400;BME280;68856;45.586;10.264;2023-04-15T11:30:55;98202.78;;;19.89;nan
79400;BME280;68856;45.586;10.264;2023-04-15T11:33:22;98188.25;;;20.25;nan
79400;BME280;68856;45.586;10.264;2023-04-15T11:35:50;98191.56;;;20.67;nan
79400;BME280;68856;45.586;10.264;2023-04-15T11:38:17;98194.13;;;21.00;nan
79400;BME280;68856;45.586;10.264;2023-04-15T11:40:44;98190.47;;;21.36;nan
79400;BME280;68856;45.586;10.264;2023-04-15T11:43:15;98193.38;;;21.55;nan
79400;BME280;68856;45.586;10.264;2023-04-15T11:45:58;98197.50;;;21.33;nan
79400;BME280;68856;45.586;10.264;2023-04-15T11:48:29;98189.94;;;21.73;nan
79400;BME280;68856;45.586;10.264;2023-04-15T11:50:59;98191.06;;;22.00;nan
79400;BME280;68856;45.586;10.264;2023-04-15T11:53:48;98200.00;;;21.94;nan
79400;BME280;68856;45.586;10.264;2023-04-15T11:56:22;98193.84;;;22.16;nan
79400;BME280;68856;45.586;10.264;2023-04-15T11:58:54;98187.34;;;22.59;nan
79400;BME280;68856;45.586;10.264;2023-04-15T12:01:32;98180.94;;;23.24;nan
79400;BME280;68856;45.586;10.264;2023-04-15T12:03:58;98199.19;;;23.44;nan
79400;BME280;68856;45.586;10.264;2023-04-15T12:06:31;98196.41;;;23.25;nan
79400;BME280;68856;45.586;10.264;2023-04-15T12:14:05;98199.81;;;23.76;nan
79400;BME280;68856;45.586;10.264;2023-04-15T12:16:34;98201.22;;;23.47;nan
79400;BME280;68856;45.586;10.264;2023-04-15T12:19:13;98195.81;;;23.35;nan
79400;BME280;68856;45.586;10.264;2023-04-15T12:21:43;98194.69;;;23.21;nan
79400;BME280;68856;45.586;10.264;2023-04-15T12:24:10;98189.59;;;22.69;nan
79400;BME280;68856;45.586;10.264;2023-04-15T12:26:51;98197.47;;;22.51;nan
79400;BME280;68856;45.586;10.264;2023-04-15T12:29:19;98198.97;;;22.49;nan
79400;BME280;68856;45.586;10.264;2023-04-15T12:31:52;98194.25;;;22.49;nan
79400;BME280;68856;45.586;10.264;2023-04-15T12:34:27;98194.16;;;22.30;nan
79400;BME280;68856;45.586;10.264;2023-04-15T12:36:54;98196.06;;;22.42;nan
79400;BME280;68856;45.586;10.264;2023-04-15T12:39:25;98189.28;;;22.39;nan
79400;BME280;68856;45.586;10.264;2023-04-15T12:41:53;98193.72;;;22.12;nan
79400;BME280;68856;45.586;10.264;2023-04-15T12:44:21;98203.00;;;22.04;nan
79400;BME280;68856;45.586;10.264;2023-04-15T12:46:48;98194.97;;;21.99;nan
79400;BME280;68856;45.586;10.264;2023-04-15T12:49:14;98193.03;;;22.00;nan
79400;BME280;68856;45.586;10.264;2023-04-15T12:51:41;98191.06;;;22.00;nan
79400;BME280;68856;45.586;10.264;2023-04-15T12:54:08;98185.50;;;21.85;nan
79400;BME280;68856;45.586;10.264;2023-04-15T12:56:34;98196.41;;;21.65;nan
79400;BME280;68856;45.586;10.264;2023-04-15T12:59:00;98195.41;;;21.58;nan
79400;BME280;68856;45.586;10.264;2023-04-15T13:01:27;98201.19;;;21.53;nan
79400;BME280;68856;45.586;10.264;2023-04-15T13:03:53;98209.19;;;21.42;nan
79400;BME280;68856;45.586;10.264;2023-04-15T13:06:20;98205.94;;;21.52;nan
79400;BME280;68856;45.586;10.264;2023-04-15T13:08:47;98196.81;;;21.80;nan
79400;BME280;68856;45.586;10.264;2023-04-15T13:11:13;98195.56;;;22.86;nan
79400;BME280;68856;45.586;10.264;2023-04-15T13:13:39;98198.91;;;24.59;nan
79400;BME280;68856;45.586;10.264;2023-04-15T13:16:06;98188.63;;;24.14;nan
79400;BME280;68856;45.586;10.264;2023-04-15T13:18:33;98201.13;;;24.05;nan
79400;BME280;68856;45.586;10.264;2023-04-15T13:21:00;98199.31;;;23.93;nan
79400;BME280;68856;45.586;10.264;2023-04-15T13:23:26;98202.47;;;23.69;nan
79400;BME280;68856;45.586;10.264;2023-04-15T13:25:53;98205.25;;;23.92;nan
79400;BME280;68856;45.586;10.264;2023-04-15T13:28:19;98197.31;;;24.36;nan
79400;BME280;68856;45.586;10.264;2023-04-15T13:30:45;98202.34;;;24.53;nan
79400;BME280;68856;45.586;10.264;2023-04-15T13:33:13;98191.56;;;24.74;nan
79400;BME280;68856;45.586;10.264;2023-04-15T13:35:40;98190.47;;;25.38;nan